createdAt,value
2023-03-28T00:02:08.009Z,99.90
2023-03-28T00:04:34.669Z,99.90
2023-03-28T00:07:01.310Z,99.90
2023-03-28T00:09:27.988Z,99.90
2023-03-28T00:11:54.570Z,99.90
2023-03-28T00:14:21.450Z,99.90
2023-03-28T00:16:48.176Z,99.90
2023-03-28T00:19:19.607Z,99.90
2023-03-28T00:21:48.870Z,99.90
2023-03-28T00:24:18.743Z,99.90
2023-03-28T00:26:45.901Z,99.90
2023-03-28T00:29:21.178Z,99.90
2023-03-28T00:31:49.571Z,99.90
2023-03-28T00:34:16.534Z,99.90
2023-03-28T00:36:43.204Z,99.90
2023-03-28T00:39:10.502Z,99.90
2023-03-28T00:41:41.505Z,99.90
2023-03-28T00:44:39.343Z,99.90
2023-03-28T00:47:30.798Z,99.90
2023-03-28T00:50:03.464Z,99.90
2023-03-28T00:52:39.917Z,99.90
2023-03-28T00:55:12.319Z,99.90
2023-03-28T00:57:40.062Z,99.90
2023-03-28T01:00:12.264Z,99.90
2023-03-28T01:02:45.569Z,99.90
2023-03-28T01:05:13.496Z,99.90
2023-03-28T01:07:46.051Z,99.90
2023-03-28T01:10:13.472Z,99.90
2023-03-28T01:12:42.727Z,99.90
2023-03-28T01:15:10.585Z,99.90
2023-03-28T01:17:37.813Z,99.90
2023-03-28T01:20:27.590Z,99.90
2023-03-28T01:23:23.581Z,99.90
2023-03-28T01:26:20.412Z,99.90
2023-03-28T01:28:58.941Z,99.90
2023-03-28T01:31:43.916Z,99.90
2023-03-28T01:34:44.775Z,99.90
2023-03-28T01:37:17.181Z,99.90
2023-03-28T01:40:23.159Z,99.90
2023-03-28T01:43:04.988Z,99.90
2023-03-28T01:45:51.021Z,99.90
2023-03-28T01:48:32.718Z,99.90
2023-03-28T01:51:29.548Z,99.90
2023-03-28T01:54:19.297Z,99.90
2023-03-28T01:56:51.747Z,99.90
2023-03-28T01:59:26.671Z,99.90
2023-03-28T02:02:01.266Z,99.90
2023-03-28T02:04:30.244Z,99.90
2023-03-28T02:06:58.116Z,99.90
2023-03-28T02:09:27.097Z,99.90
2023-03-28T02:11:59.665Z,99.90
2023-03-28T02:14:29.915Z,99.90
2023-03-28T02:17:04.538Z,99.90
2023-03-28T02:19:33.834Z,99.90
2023-03-28T02:22:12.138Z,99.90
2023-03-28T02:24:38.766Z,99.90
2023-03-28T02:27:08.409Z,99.90
2023-03-28T02:29:37.457Z,99.90
2023-03-28T02:32:04.262Z,99.90
2023-03-28T02:34:31.527Z,99.90
2023-03-28T02:37:13.203Z,99.90
2023-03-28T02:39:44.453Z,99.90
2023-03-28T02:42:25.799Z,99.90
2023-03-28T02:45:01.312Z,99.90
2023-03-28T02:47:57.087Z,99.90
2023-03-28T02:50:27.310Z,99.90
2023-03-28T02:53:05.133Z,99.90
2023-03-28T02:55:41.011Z,99.90
2023-03-28T02:58:22.884Z,99.90
2023-03-28T03:00:50.208Z,99.90
2023-03-28T03:03:18.051Z,99.90
2023-03-28T03:05:44.715Z,99.90
2023-03-28T03:08:11.795Z,99.90
2023-03-28T03:10:38.430Z,99.90
2023-03-28T03:13:05.355Z,99.90
2023-03-28T03:15:32.099Z,99.90
2023-03-28T03:17:59.541Z,99.90
2023-03-28T03:20:27.838Z,99.90
2023-03-28T03:22:55.461Z,99.90
2023-03-28T03:25:22.253Z,99.90
2023-03-28T03:27:48.858Z,99.90
2023-03-28T03:30:15.532Z,99.90
2023-03-28T03:32:44.071Z,99.90
2023-03-28T03:35:11.379Z,99.90
2023-03-28T03:37:38.154Z,99.90
2023-03-28T03:40:05.769Z,99.90
2023-03-28T03:42:33.262Z,99.90
2023-03-28T03:44:59.911Z,99.90
2023-03-28T03:47:26.846Z,99.90
2023-03-28T03:49:53.563Z,99.90
2023-03-28T03:52:20.179Z,99.90
2023-03-28T03:54:46.824Z,99.90
2023-03-28T03:57:13.567Z,99.90
2023-03-28T03:59:40.245Z,99.90
2023-03-28T04:02:06.933Z,99.90
2023-03-28T04:04:33.687Z,99.90
2023-03-28T04:07:02.289Z,99.90
2023-03-28T04:09:28.932Z,99.90
2023-03-28T04:11:55.932Z,99.90
2023-03-28T04:14:22.544Z,99.90
2023-03-28T04:16:53.805Z,99.90
2023-03-28T04:19:20.646Z,99.90
2023-03-28T04:21:48.824Z,99.90
2023-03-28T04:24:16.274Z,99.90
2023-03-28T04:26:45.886Z,99.90
2023-03-28T04:29:12.914Z,99.90
2023-03-28T04:31:39.852Z,99.90
2023-03-28T04:34:07.152Z,99.90
2023-03-28T04:36:33.831Z,99.90
2023-03-28T04:39:02.882Z,99.90
2023-03-28T04:41:32.152Z,99.90
2023-03-28T04:43:58.941Z,99.90
2023-03-28T04:46:25.759Z,99.90
2023-03-28T04:48:56.496Z,99.90
2023-03-28T04:51:24.924Z,99.90
2023-03-28T04:53:51.528Z,99.90
2023-03-28T04:56:18.287Z,99.90
2023-03-28T04:58:44.908Z,99.90
2023-03-28T05:01:11.710Z,99.90
2023-03-28T05:03:38.435Z,99.90
2023-03-28T05:06:06.515Z,99.90
2023-03-28T05:08:33.216Z,99.90
2023-03-28T05:11:00.162Z,99.90
2023-03-28T05:13:27.157Z,99.90
2023-03-28T05:15:53.900Z,99.90
2023-03-28T05:18:20.551Z,99.90
2023-03-28T05:20:47.184Z,99.90
2023-03-28T05:23:13.830Z,99.90
2023-03-28T05:25:40.525Z,99.90
2023-03-28T05:28:07.332Z,99.90
2023-03-28T05:30:34.135Z,99.90
2023-03-28T05:33:01.163Z,99.90
2023-03-28T05:35:27.854Z,99.90
2023-03-28T05:37:54.485Z,99.90
2023-03-28T05:40:21.213Z,99.90
2023-03-28T05:42:47.868Z,99.90
2023-03-28T05:45:14.994Z,99.90
2023-03-28T05:47:41.662Z,99.90
2023-03-28T05:50:09.224Z,99.90
2023-03-28T05:52:35.903Z,99.90
2023-03-28T05:55:02.584Z,99.90
2023-03-28T05:57:29.194Z,99.90
2023-03-28T05:59:55.881Z,99.90
2023-03-28T06:02:23.721Z,99.90
2023-03-28T06:04:53.447Z,99.90
2023-03-28T06:07:28.150Z,99.90
2023-03-28T06:09:58.480Z,99.90
2023-03-28T06:12:25.285Z,99.90
2023-03-28T06:14:51.885Z,99.90
2023-03-28T06:17:18.597Z,99.90
2023-03-28T06:19:45.258Z,99.90
2023-03-28T06:22:11.930Z,99.90
2023-03-28T06:24:38.546Z,99.90
2023-03-28T06:27:05.651Z,99.90
2023-03-28T06:29:32.258Z,99.90
2023-03-28T06:31:58.957Z,99.90
2023-03-28T06:34:26.082Z,99.90
2023-03-28T06:36:52.798Z,99.90
2023-03-28T06:39:19.409Z,99.90
2023-03-28T06:41:46.075Z,99.90
2023-03-28T06:44:12.703Z,99.90
2023-03-28T06:46:39.388Z,99.90
2023-03-28T06:49:06.594Z,99.90
2023-03-28T06:51:33.323Z,99.90
2023-03-28T06:54:00.221Z,99.90
2023-03-28T06:56:26.890Z,99.90
2023-03-28T06:58:53.520Z,99.90
2023-03-28T07:01:20.191Z,99.90
2023-03-28T07:03:48.140Z,99.90
2023-03-28T07:06:15.959Z,99.90
2023-03-28T07:08:42.637Z,99.90
2023-03-28T07:11:09.286Z,99.90
2023-03-28T07:13:36.218Z,99.90
2023-03-28T07:16:08.696Z,99.90
2023-03-28T07:18:35.479Z,99.90
2023-03-28T07:21:17.455Z,99.90
2023-03-28T07:23:47.202Z,99.90
2023-03-28T07:26:15.409Z,99.90
2023-03-28T07:28:42.366Z,99.90
2023-03-28T07:31:09.569Z,99.90
2023-03-28T07:33:38.364Z,99.90
2023-03-28T07:36:12.253Z,97.50
2023-03-28T07:38:39.129Z,95.40
2023-03-28T07:41:06.204Z,90.70
2023-03-28T07:43:32.995Z,80.30
2023-03-28T07:46:06.398Z,73.30
2023-03-28T07:48:34.931Z,73.50
2023-03-28T07:51:02.001Z,66.90
2023-03-28T07:53:29.550Z,64.00
2023-03-28T07:55:56.500Z,66.30
2023-03-28T07:58:23.795Z,66.90
2023-03-28T08:00:50.904Z,64.50
2023-03-28T08:03:18.814Z,59.30
2023-03-28T08:05:51.808Z,57.90
2023-03-28T08:08:20.270Z,60.00
2023-03-28T08:10:50.953Z,53.60
2023-03-28T08:13:18.531Z,54.30
2023-03-28T08:15:45.191Z,52.70
2023-03-28T08:18:12.964Z,53.90
2023-03-28T08:20:39.635Z,53.50
2023-03-28T08:23:07.375Z,53.30
2023-03-28T08:25:33.999Z,55.10
2023-03-28T08:28:00.597Z,56.90
2023-03-28T08:30:27.446Z,56.70
2023-03-28T08:32:54.084Z,54.00
2023-03-28T08:35:20.771Z,53.20
2023-03-28T08:37:48.285Z,52.00
2023-03-28T08:40:18.913Z,52.20
2023-03-28T08:43:08.332Z,51.50
2023-03-28T08:45:50.258Z,49.60
2023-03-28T08:48:38.007Z,47.10
2023-03-28T08:51:27.852Z,48.20
2023-03-28T08:54:17.523Z,48.00
2023-03-28T08:56:53.249Z,45.80
2023-03-28T08:59:43.970Z,44.10
2023-03-28T09:02:18.484Z,45.80
2023-03-28T09:04:45.567Z,43.80
2023-03-28T09:07:51.767Z,45.00
2023-03-28T09:10:42.841Z,46.40
2023-03-28T09:13:24.656Z,47.50
2023-03-28T09:16:12.389Z,46.90
2023-03-28T09:18:54.695Z,43.50
2023-03-28T09:21:31.330Z,47.60
2023-03-28T09:24:12.224Z,49.10
2023-03-28T09:26:53.826Z,46.30
2023-03-28T09:29:25.125Z,45.60
2023-03-28T09:32:01.665Z,48.70
2023-03-28T09:34:38.218Z,47.90
2023-03-28T09:37:27.779Z,46.50
2023-03-28T09:39:56.958Z,46.10
2023-03-28T09:42:30.112Z,45.70
2023-03-28T09:45:25.928Z,44.60
2023-03-28T09:47:52.754Z,44.30
2023-03-28T09:50:20.005Z,43.70
2023-03-28T09:52:50.291Z,44.20
2023-03-28T09:55:23.322Z,47.80
2023-03-28T09:58:03.842Z,46.30
2023-03-28T10:00:35.482Z,45.80
2023-03-28T10:03:02.358Z,46.80
2023-03-28T10:05:38.538Z,47.40
2023-03-28T10:08:20.768Z,46.90
2023-03-28T10:10:58.907Z,47.50
2023-03-28T10:13:26.258Z,48.90
2023-03-28T10:15:56.892Z,53.40
2023-03-28T10:18:27.780Z,51.70
2023-03-28T10:20:54.718Z,55.20
2023-03-28T10:23:23.629Z,52.90
2023-03-28T10:25:53.089Z,53.10
2023-03-28T10:28:31.803Z,52.90
2023-03-28T10:31:01.766Z,50.70
2023-03-28T10:33:36.003Z,48.40
2023-03-28T10:36:09.601Z,44.30
2023-03-28T10:38:46.511Z,47.60
2023-03-28T10:41:22.712Z,47.40
2023-03-28T10:43:50.759Z,47.40
2023-03-28T10:46:24.132Z,52.80
2023-03-28T10:49:17.006Z,53.60
2023-03-28T10:51:45.969Z,54.20
2023-03-28T10:54:16.180Z,54.60
2023-03-28T10:56:57.664Z,48.90
2023-03-28T10:59:32.870Z,50.10
2023-03-28T11:02:30.660Z,53.00
2023-03-28T11:05:28.707Z,50.70
2023-03-28T11:08:12.954Z,50.40
2023-03-28T11:10:44.468Z,48.20
2023-03-28T11:13:23.824Z,49.40
2023-03-28T11:15:59.449Z,48.60
2023-03-28T11:18:46.917Z,47.60
2023-03-28T11:21:22.309Z,46.20
2023-03-28T11:24:00.259Z,47.00
2023-03-28T11:26:44.430Z,49.60
2023-03-28T11:29:42.412Z,51.40
2023-03-28T11:32:42.522Z,49.10
2023-03-28T11:35:47.533Z,49.30
2023-03-28T11:38:27.134Z,50.30
2023-03-28T11:41:04.129Z,50.40
2023-03-28T11:43:52.904Z,51.50
2023-03-28T11:46:32.897Z,50.10
2023-03-28T11:49:09.003Z,50.70
2023-03-28T11:51:42.902Z,51.80
2023-03-28T11:54:18.738Z,48.40
2023-03-28T11:57:19.748Z,49.70
2023-03-28T12:00:33.678Z,50.20
2023-03-28T12:03:16.208Z,50.60
2023-03-28T12:05:49.290Z,49.40
2023-03-28T12:08:47.523Z,48.40
2023-03-28T12:11:31.839Z,51.80
2023-03-28T12:14:16.191Z,51.30
2023-03-28T12:16:48.003Z,52.80
2023-03-28T12:19:30.428Z,52.30
2023-03-28T12:22:04.183Z,49.20
2023-03-28T12:24:44.547Z,51.20
2023-03-28T12:27:23.552Z,52.10
2023-03-28T12:30:21.115Z,49.70
2023-03-28T12:33:01.530Z,48.50
2023-03-28T12:35:53.161Z,50.10
2023-03-28T12:38:45.578Z,46.30
2023-03-28T12:41:19.079Z,46.40
2023-03-28T12:44:06.185Z,47.10
2023-03-28T12:46:48.324Z,50.00
2023-03-28T12:49:41.514Z,49.20
2023-03-28T12:52:16.994Z,51.10
2023-03-28T12:55:04.783Z,49.40
2023-03-28T12:57:40.826Z,48.90
2023-03-28T13:00:16.484Z,49.50
2023-03-28T13:03:07.981Z,48.20
2023-03-28T13:06:09.172Z,51.20
2023-03-28T13:09:13.269Z,51.60
2023-03-28T13:12:01.992Z,52.20
2023-03-28T13:14:34.325Z,51.20
2023-03-28T13:17:03.076Z,52.50
2023-03-28T13:20:11.286Z,53.40
2023-03-28T13:22:58.569Z,55.10
2023-03-28T13:25:29.384Z,53.00
2023-03-28T13:28:12.429Z,53.60
2023-03-28T13:30:44.461Z,50.00
2023-03-28T13:33:13.897Z,53.40
2023-03-28T13:35:40.881Z,52.00
2023-03-28T13:38:15.422Z,54.10
2023-03-28T13:41:00.537Z,52.10
2023-03-28T13:43:54.641Z,51.40
2023-03-28T13:46:30.885Z,52.30
2023-03-28T13:49:11.104Z,51.80
2023-03-28T13:51:44.746Z,51.40
2023-03-28T13:54:11.855Z,52.30
2023-03-28T13:56:43.329Z,52.00
2023-03-28T13:59:17.902Z,54.20
2023-03-28T14:01:46.629Z,51.40
2023-03-28T14:04:29.876Z,52.30
2023-03-28T14:06:57.179Z,51.90
2023-03-28T14:09:34.753Z,52.20
2023-03-28T14:12:12.814Z,52.30
2023-03-28T14:14:51.373Z,55.40
2023-03-28T14:17:22.791Z,57.30
2023-03-28T14:20:01.425Z,54.80
2023-03-28T14:22:30.434Z,55.00
2023-03-28T14:25:07.273Z,56.60
2023-03-28T14:27:39.573Z,56.50
2023-03-28T14:30:26.046Z,54.80
2023-03-28T14:33:00.454Z,55.00
2023-03-28T14:35:32.457Z,57.30
2023-03-28T14:38:01.300Z,56.10
2023-03-28T14:40:27.937Z,54.70
2023-03-28T14:42:59.269Z,54.80
2023-03-28T14:45:26.957Z,57.90
2023-03-28T14:47:56.155Z,58.20
2023-03-28T14:50:25.404Z,57.10
2023-03-28T14:52:52.074Z,56.30
2023-03-28T14:55:22.227Z,55.30
2023-03-28T14:57:52.146Z,56.50
2023-03-28T15:00:26.380Z,55.00
2023-03-28T15:02:53.745Z,54.40
2023-03-28T15:05:22.281Z,55.30
2023-03-28T15:08:01.955Z,55.50
2023-03-28T15:10:29.665Z,56.70
2023-03-28T15:13:13.883Z,57.40
2023-03-28T15:15:46.141Z,57.20
2023-03-28T15:18:17.618Z,57.70
2023-03-28T15:20:49.450Z,59.50
2023-03-28T15:23:22.330Z,56.00
2023-03-28T15:25:49.007Z,58.10
2023-03-28T15:28:18.089Z,59.70
2023-03-28T15:30:46.850Z,56.90
2023-03-28T15:33:22.593Z,59.50
2023-03-28T15:35:52.537Z,60.40
2023-03-28T15:38:27.761Z,58.50
2023-03-28T15:41:27.880Z,61.10
2023-03-28T15:43:54.466Z,57.80
2023-03-28T15:46:22.633Z,58.10
2023-03-28T15:48:49.578Z,58.60
2023-03-28T15:51:18.060Z,60.20
2023-03-28T15:53:50.377Z,60.30
2023-03-28T15:56:41.144Z,62.00
2023-03-28T15:59:17.515Z,60.80
2023-03-28T16:01:44.406Z,61.30
2023-03-28T16:04:21.226Z,59.80
2023-03-28T16:06:48.314Z,59.80
2023-03-28T16:09:22.302Z,60.00
2023-03-28T16:11:59.364Z,61.20
2023-03-28T16:14:26.384Z,61.40
2023-03-28T16:16:54.697Z,62.90
2023-03-28T16:19:27.481Z,62.00
2023-03-28T16:21:54.297Z,60.30
2023-03-28T16:24:21.396Z,60.00
2023-03-28T16:26:48.454Z,61.70
2023-03-28T16:29:15.257Z,62.60
2023-03-28T16:31:42.095Z,61.30
2023-03-28T16:34:10.153Z,60.60
2023-03-28T16:36:37.837Z,60.30
2023-03-28T16:39:06.254Z,60.90
2023-03-28T16:41:32.898Z,59.70
2023-03-28T16:43:59.719Z,61.40
2023-03-28T16:46:26.513Z,61.20
2023-03-28T16:48:53.203Z,61.20
2023-03-28T16:51:19.889Z,61.20
2023-03-28T16:53:46.561Z,61.70
2023-03-28T16:56:15.040Z,62.60
2023-03-28T16:58:42.044Z,62.00
2023-03-28T17:01:11.608Z,62.40
2023-03-28T17:03:38.475Z,62.10
2023-03-28T17:06:09.585Z,61.30
2023-03-28T17:08:36.348Z,61.90
2023-03-28T17:11:09.319Z,62.80
2023-03-28T17:13:37.314Z,61.30
2023-03-28T17:16:04.895Z,61.70
2023-03-28T17:18:31.792Z,60.80
2023-03-28T17:21:09.862Z,61.00
2023-03-28T17:23:38.015Z,61.60
2023-03-28T17:26:07.884Z,62.30
2023-03-28T17:28:36.892Z,62.30
2023-03-28T17:31:08.053Z,62.80
2023-03-28T17:33:34.953Z,62.50
2023-03-28T17:36:14.211Z,62.60
2023-03-28T17:38:40.896Z,62.10
2023-03-28T17:41:09.022Z,63.00
2023-03-28T17:43:35.766Z,63.60
2023-03-28T17:46:03.070Z,63.20
2023-03-28T17:48:29.948Z,63.50
2023-03-28T17:50:56.564Z,63.60
2023-03-28T17:53:23.218Z,63.40
2023-03-28T17:55:49.893Z,63.30
2023-03-28T17:58:16.533Z,63.60
2023-03-28T18:00:43.157Z,63.30
2023-03-28T18:03:10.679Z,64.00
2023-03-28T18:05:37.296Z,64.00
2023-03-28T18:08:04.211Z,64.20
2023-03-28T18:10:31.625Z,64.10
2023-03-28T18:12:58.305Z,64.10
2023-03-28T18:15:24.961Z,63.60
2023-03-28T18:17:51.969Z,65.10
2023-03-28T18:20:18.835Z,64.60
2023-03-28T18:22:46.263Z,64.30
2023-03-28T18:25:12.890Z,64.30
2023-03-28T18:27:39.645Z,65.10
2023-03-28T18:30:08.250Z,65.40
2023-03-28T18:32:36.262Z,65.50
2023-03-28T18:35:06.923Z,65.70
2023-03-28T18:37:34.188Z,65.70
2023-03-28T18:40:01.828Z,66.20
2023-03-28T18:42:30.161Z,65.60
2023-03-28T18:44:57.113Z,66.30
2023-03-28T18:47:23.763Z,66.30
2023-03-28T18:49:50.721Z,66.20
2023-03-28T18:52:17.332Z,65.90
2023-03-28T18:54:46.471Z,66.70
2023-03-28T18:57:13.250Z,66.80
2023-03-28T18:59:40.419Z,67.00
2023-03-28T19:02:13.944Z,67.20
2023-03-28T19:04:40.660Z,67.80
2023-03-28T19:07:08.176Z,67.90
2023-03-28T19:09:34.973Z,68.20
2023-03-28T19:14:35.466Z,68.70
2023-03-28T19:17:02.476Z,68.90
2023-03-28T19:19:29.176Z,69.10
2023-03-28T19:21:55.952Z,69.80
2023-03-28T19:24:23.356Z,70.20
2023-03-28T19:26:50.243Z,70.80
2023-03-28T19:29:16.969Z,70.90
2023-03-28T19:31:43.806Z,70.90
2023-03-28T19:34:16.922Z,71.20
2023-03-28T19:36:43.595Z,71.70
2023-03-28T19:39:10.605Z,72.50
2023-03-28T19:41:37.228Z,72.40
2023-03-28T19:44:04.196Z,72.90
2023-03-28T19:46:33.268Z,74.40
2023-03-28T19:49:03.535Z,76.60
2023-03-28T19:51:30.223Z,78.20
2023-03-28T19:53:56.934Z,80.10
2023-03-28T19:56:23.669Z,81.70
2023-03-28T19:58:52.214Z,82.40
2023-03-28T20:01:19.652Z,86.50
2023-03-28T20:03:49.369Z,88.90
2023-03-28T20:06:16.932Z,89.30
2023-03-28T20:08:43.808Z,89.10
2023-03-28T20:11:12.617Z,89.30
2023-03-28T20:13:40.088Z,88.00
2023-03-28T20:16:08.619Z,88.30
2023-03-28T20:18:36.224Z,90.60
2023-03-28T20:21:05.518Z,93.40
2023-03-28T20:23:33.161Z,90.80
2023-03-28T20:26:01.587Z,90.90
2023-03-28T20:28:32.548Z,91.60
2023-03-28T20:30:59.451Z,91.50
2023-03-28T20:33:26.316Z,92.30
2023-03-28T20:35:57.521Z,94.30
2023-03-28T20:38:25.315Z,95.80
2023-03-28T20:40:52.029Z,96.60
2023-03-28T20:43:22.728Z,97.20
2023-03-28T20:45:53.967Z,97.90
2023-03-28T20:48:34.939Z,97.00
2023-03-28T20:51:17.448Z,97.70
2023-03-28T20:53:47.578Z,98.30
2023-03-28T20:56:14.510Z,97.60
2023-03-28T20:58:42.698Z,96.90
2023-03-28T21:01:12.059Z,96.80
2023-03-28T21:03:49.711Z,98.20
2023-03-28T21:06:19.408Z,98.90
2023-03-28T21:08:48.193Z,97.50
2023-03-28T21:11:16.781Z,97.10
2023-03-28T21:13:43.608Z,97.80
2023-03-28T21:16:11.844Z,98.10
2023-03-28T21:18:38.525Z,98.40
2023-03-28T21:21:07.286Z,98.30
2023-03-28T21:23:38.872Z,98.20
2023-03-28T21:26:07.870Z,98.30
2023-03-28T21:28:35.483Z,98.70
2023-03-28T21:31:08.966Z,99.20
2023-03-28T21:33:37.100Z,99.90
2023-03-28T21:36:07.167Z,99.90
2023-03-28T21:38:34.666Z,99.90
2023-03-28T21:41:01.861Z,99.90
2023-03-28T21:43:28.704Z,99.90
2023-03-28T21:45:55.442Z,99.90
2023-03-28T21:48:22.167Z,99.90
2023-03-28T21:50:53.677Z,99.90
2023-03-28T21:53:21.531Z,99.90
2023-03-28T21:55:48.271Z,99.90
2023-03-28T21:58:14.862Z,99.90
2023-03-28T22:00:41.834Z,99.90
2023-03-28T22:03:08.694Z,99.90
2023-03-28T22:05:42.504Z,99.90
2023-03-28T22:08:12.282Z,99.90
2023-03-28T22:10:46.573Z,99.90
2023-03-28T22:13:13.944Z,99.90
2023-03-28T22:15:41.416Z,99.90
2023-03-28T22:18:09.319Z,99.90
2023-03-28T22:20:38.152Z,99.90
2023-03-28T22:23:05.949Z,99.90
2023-03-28T22:25:38.072Z,99.90
2023-03-28T22:28:07.322Z,99.90
2023-03-28T22:30:35.877Z,99.90
2023-03-28T22:33:03.876Z,99.90
2023-03-28T22:35:32.221Z,99.90
2023-03-28T22:37:59.768Z,99.90
2023-03-28T22:40:26.686Z,99.90
2023-03-28T22:42:54.115Z,99.90
2023-03-28T22:45:26.448Z,99.90
2023-03-28T22:47:53.873Z,99.90
2023-03-28T22:50:22.013Z,99.90
2023-03-28T22:52:52.875Z,99.90
2023-03-28T22:55:22.189Z,99.90
2023-03-28T22:57:51.517Z,99.90
2023-03-28T23:00:18.791Z,99.90
2023-03-28T23:02:46.603Z,99.90
2023-03-28T23:05:13.596Z,99.90
2023-03-28T23:07:41.464Z,99.90
2023-03-28T23:10:14.371Z,99.90
2023-03-28T23:12:42.485Z,99.90
2023-03-28T23:15:09.969Z,99.90
2023-03-28T23:17:36.877Z,99.90
2023-03-28T23:20:12.664Z,99.90
2023-03-28T23:22:41.013Z,99.90
2023-03-28T23:25:08.541Z,99.90
2023-03-28T23:27:35.508Z,99.90
2023-03-28T23:30:02.391Z,99.90
2023-03-28T23:32:29.123Z,99.90
2023-03-28T23:34:55.898Z,99.90
2023-03-28T23:37:26.065Z,99.90
2023-03-28T23:39:53.822Z,99.90
2023-03-28T23:42:21.439Z,99.90
2023-03-28T23:44:48.136Z,99.90
2023-03-28T23:47:15.311Z,99.90
2023-03-28T23:49:42.591Z,99.90
2023-03-28T23:52:12.624Z,99.90
2023-03-28T23:54:39.968Z,99.90
2023-03-28T23:57:07.315Z,99.90
2023-03-28T23:59:34.393Z,99.90
